Time;durP1;ratioP1;P1;durP2;ratioP2;P2;SDS_P1;SDS_P2;PMS_P1;PMS_P2;Temp;Humidity;BMP_temperature;BMP_pressure;BME280_temperature;BME280_humidity;BME280_pressure;Samples;Min_cycle;Max_cycle;Signal;HPM_P1;HPM_P2
2022/12/05 00:00:30;;;;;;;50.38;23.00;;;;;;;;;;6244332;23;20028;-63
2022/12/05 00:02:56;;;;;;;53.05;23.88;;;;;;;;;;6244080;23;20442;-63
2022/12/05 00:05:22;;;;;;;42.35;20.45;;;;;;;;;;6243994;23;20000;-63
2022/12/05 00:07:48;;;;;;;52.10;23.63;;;;;;;;;;6243962;23;20008;-64
2022/12/05 00:10:15;;;;;;;51.03;21.55;;;;;;;;;;6243792;23;20016;-60
2022/12/05 00:12:41;;;;;;;48.70;21.67;;;;;;;;;;6243834;23;20062;-60
2022/12/05 00:15:11;;;;;;;49.97;21.25;;;;;;;;;;6244352;23;20004;-59
2022/12/05 00:17:38;;;;;;;47.70;23.23;;;;;;;;;;6244055;22;20075;-60
2022/12/05 00:20:04;;;;;;;43.72;21.05;;;;;;;;;;6244387;22;20006;-59
2022/12/05 00:22:31;;;;;;;50.40;21.83;;;;;;;;;;6243958;23;20012;-59
2022/12/05 00:24:57;;;;;;;41.38;20.35;;;;;;;;;;6243889;23;20490;-59
2022/12/05 00:27:23;;;;;;;52.90;22.73;;;;;;;;;;6244031;23;20008;-59
2022/12/05 00:29:49;;;;;;;44.85;20.13;;;;;;;;;;6243910;23;20342;-59
2022/12/05 00:32:15;;;;;;;45.47;21.25;;;;;;;;;;6244221;23;20036;-59
2022/12/05 00:34:41;;;;;;;45.67;21.23;;;;;;;;;;6244104;23;20493;-59
2022/12/05 00:37:07;;;;;;;46.60;21.65;;;;;;;;;;6243811;23;20004;-59
2022/12/05 00:39:33;;;;;;;52.05;23.67;;;;;;;;;;6243123;23;20011;-59
2022/12/05 00:41:59;;;;;;;48.25;22.75;;;;;;;;;;6243847;23;20015;-60
2022/12/05 00:44:25;;;;;;;56.22;24.20;;;;;;;;;;6244131;23;20073;-59
2022/12/05 00:46:51;;;;;;;52.03;23.05;;;;;;;;;;6243701;23;20004;-59
2022/12/05 00:49:18;;;;;;;51.55;23.02;;;;;;;;;;6243982;23;20008;-59
2022/12/05 00:51:44;;;;;;;45.63;22.35;;;;;;;;;;6243762;23;20386;-59
2022/12/05 00:54:12;;;;;;;52.72;23.33;;;;;;;;;;6243808;23;20427;-59
2022/12/05 00:56:39;;;;;;;51.55;22.90;;;;;;;;;;6243781;23;20511;-59
2022/12/05 00:59:05;;;;;;;45.05;21.77;;;;;;;;;;6243973;23;20004;-60
2022/12/05 01:01:32;;;;;;;46.15;22.85;;;;;;;;;;6244126;23;20008;-60
2022/12/05 01:03:59;;;;;;;45.78;21.73;;;;;;;;;;6243601;23;20087;-59
2022/12/05 01:06:25;;;;;;;44.83;20.83;;;;;;;;;;6245078;23;20015;-59
2022/12/05 01:08:53;;;;;;;43.20;21.27;;;;;;;;;;6245585;23;20385;-60
2022/12/05 01:11:19;;;;;;;45.13;21.42;;;;;;;;;;6245760;23;20018;-59
2022/12/05 01:13:45;;;;;;;48.08;21.83;;;;;;;;;;6245453;23;20083;-59
2022/12/05 01:16:16;;;;;;;44.20;20.10;;;;;;;;;;6245700;23;20011;-59
2022/12/05 01:18:42;;;;;;;49.08;21.95;;;;;;;;;;6245809;23;20079;-59
2022/12/05 01:21:08;;;;;;;55.70;24.30;;;;;;;;;;6246049;23;20004;-60
2022/12/05 01:23:34;;;;;;;54.40;26.05;;;;;;;;;;6245543;23;20008;-59
2022/12/05 01:26:04;;;;;;;49.97;23.15;;;;;;;;;;6245391;23;20080;-59
2022/12/05 01:28:30;;;;;;;46.00;20.63;;;;;;;;;;6245733;23;20004;-59
2022/12/05 01:30:57;;;;;;;44.60;21.70;;;;;;;;;;6245495;23;20010;-59
2022/12/05 01:33:23;;;;;;;48.13;22.33;;;;;;;;;;6245713;23;20058;-59
2022/12/05 01:35:49;;;;;;;45.70;21.92;;;;;;;;;;6245169;23;20027;-60
2022/12/05 01:38:15;;;;;;;54.67;23.48;;;;;;;;;;6245247;23;20015;-59
2022/12/05 01:40:41;;;;;;;58.22;25.40;;;;;;;;;;6245544;23;20008;-60
2022/12/05 01:43:15;;;;;;;63.17;27.70;;;;;;;;;;6245277;23;20054;-59
2022/12/05 01:45:43;;;;;;;60.10;26.85;;;;;;;;;;6245676;22;20095;-59
2022/12/05 01:48:12;;;;;;;56.00;24.00;;;;;;;;;;6245795;23;20369;-60
2022/12/05 01:50:38;;;;;;;47.28;22.33;;;;;;;;;;6245394;23;20496;-59
2022/12/05 01:53:04;;;;;;;50.20;22.23;;;;;;;;;;6244768;23;20068;-60
2022/12/05 01:55:31;;;;;;;50.08;21.90;;;;;;;;;;6245331;23;20008;-59
2022/12/05 01:57:57;;;;;;;53.05;22.80;;;;;;;;;;6244865;23;20347;-60
2022/12/05 02:00:24;;;;;;;48.38;20.70;;;;;;;;;;6245160;22;20008;-60
2022/12/05 02:02:53;;;;;;;46.38;22.08;;;;;;;;;;6245230;22;20004;-59
2022/12/05 02:05:35;;;;;;;52.28;21.80;;;;;;;;;;6245291;23;20015;-60
2022/12/05 02:08:08;;;;;;;51.33;21.83;;;;;;;;;;6244550;23;20004;-60
2022/12/05 02:10:38;;;;;;;46.45;20.58;;;;;;;;;;6245261;23;20058;-60
2022/12/05 02:13:16;;;;;;;46.08;21.92;;;;;;;;;;6244638;23;20008;-60
2022/12/05 02:15:49;;;;;;;43.33;21.45;;;;;;;;;;6245020;23;20015;-60
2022/12/05 02:18:15;;;;;;;44.35;22.10;;;;;;;;;;6245019;23;20008;-60
2022/12/05 02:20:47;;;;;;;47.70;21.10;;;;;;;;;;6244997;23;20011;-59
2022/12/05 02:23:13;;;;;;;51.97;21.88;;;;;;;;;;6244886;23;20012;-59
2022/12/05 02:25:49;;;;;;;44.97;20.85;;;;;;;;;;6244937;23;20010;-60
2022/12/05 02:28:30;;;;;;;46.58;22.88;;;;;;;;;;6245012;23;20004;-60
2022/12/05 02:30:59;;;;;;;47.45;20.30;;;;;;;;;;6244911;23;20012;-60
2022/12/05 02:33:34;;;;;;;52.25;22.83;;;;;;;;;;6245130;22;20007;-60
2022/12/05 02:36:13;;;;;;;47.28;22.30;;;;;;;;;;6244295;23;20055;-60
2022/12/05 02:38:43;;;;;;;48.15;21.45;;;;;;;;;;6244414;23;20012;-60
2022/12/05 02:41:24;;;;;;;51.88;22.75;;;;;;;;;;6244687;23;20446;-60
2022/12/05 02:44:08;;;;;;;47.42;21.25;;;;;;;;;;6244826;23;20394;-60
2022/12/05 02:46:37;;;;;;;48.22;22.33;;;;;;;;;;6244687;23;20020;-60
2022/12/05 02:49:05;;;;;;;45.60;20.55;;;;;;;;;;6244826;23;20004;-60
2022/12/05 02:51:34;;;;;;;46.20;20.90;;;;;;;;;;6244433;23;20018;-59
2022/12/05 02:54:04;;;;;;;46.90;21.45;;;;;;;;;;6244691;23;20496;-60
2022/12/05 02:56:31;;;;;;;55.20;22.48;;;;;;;;;;6244867;23;20008;-60
2022/12/05 02:58:58;;;;;;;45.92;20.55;;;;;;;;;;6244605;23;20004;-59
2022/12/05 03:01:26;;;;;;;46.42;21.23;;;;;;;;;;6244936;23;20030;-60
2022/12/05 03:03:52;;;;;;;45.97;21.60;;;;;;;;;;6244783;23;20000;-59
2022/12/05 03:06:25;;;;;;;45.35;21.20;;;;;;;;;;6243985;22;20008;-60
2022/12/05 03:09:09;;;;;;;45.78;20.90;;;;;;;;;;6244904;23;20450;-59
2022/12/05 03:11:39;;;;;;;51.00;21.15;;;;;;;;;;6244727;23;20014;-60
2022/12/05 03:14:07;;;;;;;47.40;20.85;;;;;;;;;;6243881;23;20019;-59
2022/12/05 03:16:36;;;;;;;45.72;20.40;;;;;;;;;;6244650;23;20473;-60
2022/12/05 03:19:05;;;;;;;48.10;20.50;;;;;;;;;;6243815;23;20004;-59
2022/12/05 03:21:36;;;;;;;49.60;21.67;;;;;;;;;;6244692;23;20446;-59
2022/12/05 03:24:05;;;;;;;48.60;22.48;;;;;;;;;;6242805;23;20009;-60
2022/12/05 03:26:36;;;;;;;50.42;21.10;;;;;;;;;;6244247;22;20422;-60
2022/12/05 03:29:21;;;;;;;42.15;19.80;;;;;;;;;;6243891;23;20011;-60
2022/12/05 03:32:00;;;;;;;44.22;20.75;;;;;;;;;;6244542;22;20008;-59
2022/12/05 03:34:42;;;;;;;48.17;21.25;;;;;;;;;;6243935;23;20015;-59
2022/12/05 03:37:19;;;;;;;41.78;20.42;;;;;;;;;;6244202;22;20015;-60
2022/12/05 03:39:49;;;;;;;47.00;19.50;;;;;;;;;;6244190;23;20008;-59
2022/12/05 03:42:20;;;;;;;46.28;21.27;;;;;;;;;;6244104;23;20020;-59
2022/12/05 03:44:52;;;;;;;44.65;20.10;;;;;;;;;;6244416;23;20008;-59
2022/12/05 03:47:26;;;;;;;50.92;21.13;;;;;;;;;;6244044;23;20000;-59
2022/12/05 03:49:56;;;;;;;49.55;20.83;;;;;;;;;;6243784;23;20004;-59
2022/12/05 03:52:29;;;;;;;46.00;21.20;;;;;;;;;;6244017;23;20001;-59
2022/12/05 03:54:55;;;;;;;46.40;20.15;;;;;;;;;;6244440;23;20034;-60
2022/12/05 03:57:27;;;;;;;48.72;21.23;;;;;;;;;;6243961;23;20000;-60
2022/12/05 04:00:08;;;;;;;39.97;19.70;;;;;;;;;;6244055;23;20004;-59
2022/12/05 04:02:44;;;;;;;49.20;21.15;;;;;;;;;;6243837;23;20008;-59
2022/12/05 04:05:14;;;;;;;47.95;20.45;;;;;;;;;;6244028;22;20073;-60
2022/12/05 04:07:41;;;;;;;44.05;20.33;;;;;;;;;;6244286;23;20005;-60
2022/12/05 04:10:10;;;;;;;43.47;19.90;;;;;;;;;;6243858;23;20007;-60
2022/12/05 04:12:37;;;;;;;50.47;20.50;;;;;;;;;;6243901;23;20020;-60
2022/12/05 04:15:06;;;;;;;50.42;19.27;;;;;;;;;;6244067;23;20007;-60
2022/12/05 04:17:37;;;;;;;42.05;20.15;;;;;;;;;;6243917;23;20008;-60
2022/12/05 04:22:51;;;;;;;48.10;20.80;;;;;;;;;;6243932;23;20046;-60
2022/12/05 04:25:33;;;;;;;45.40;20.05;;;;;;;;;;6243721;23;20473;-59
2022/12/05 04:27:59;;;;;;;40.33;19.67;;;;;;;;;;6244198;23;20438;-59
2022/12/05 04:30:28;;;;;;;47.17;20.48;;;;;;;;;;6243571;23;20599;-60
2022/12/05 04:32:54;;;;;;;46.08;19.75;;;;;;;;;;6243520;23;20075;-60
2022/12/05 04:35:26;;;;;;;49.22;21.88;;;;;;;;;;6243936;23;20001;-60
2022/12/05 04:37:53;;;;;;;44.42;19.95;;;;;;;;;;6244004;23;20074;-60
2022/12/05 04:40:21;;;;;;;46.58;19.40;;;;;;;;;;6244471;23;20001;-60
2022/12/05 04:42:49;;;;;;;42.88;21.13;;;;;;;;;;6246223;23;20004;-60
2022/12/05 04:45:16;;;;;;;43.33;18.63;;;;;;;;;;6245896;23;20000;-60
2022/12/05 04:47:47;;;;;;;50.92;20.80;;;;;;;;;;6245662;23;20011;-64
2022/12/05 04:50:13;;;;;;;43.53;20.25;;;;;;;;;;6245866;23;20004;-64
2022/12/05 04:52:40;;;;;;;44.63;19.95;;;;;;;;;;6246135;23;20003;-64
2022/12/05 04:55:09;;;;;;;47.10;21.08;;;;;;;;;;6245945;23;20030;-64
2022/12/05 04:57:55;;;;;;;47.28;18.60;;;;;;;;;;6245787;23;20000;-64
2022/12/05 05:00:22;;;;;;;45.13;20.40;;;;;;;;;;6245177;23;20050;-64
2022/12/05 05:02:54;;;;;;;43.92;20.15;;;;;;;;;;6245986;23;20074;-64
2022/12/05 05:05:20;;;;;;;46.67;20.02;;;;;;;;;;6245739;23;20362;-64
2022/12/05 05:07:47;;;;;;;50.33;21.65;;;;;;;;;;6246155;23;20323;-64
2022/12/05 05:10:22;;;;;;;49.58;20.13;;;;;;;;;;6245834;23;20351;-64
2022/12/05 05:12:48;;;;;;;44.65;19.52;;;;;;;;;;6245486;23;20019;-64
2022/12/05 05:15:14;;;;;;;40.88;19.98;;;;;;;;;;6245550;23;20078;-64
2022/12/05 05:17:40;;;;;;;47.38;21.70;;;;;;;;;;6245687;23;20011;-64
2022/12/05 05:20:22;;;;;;;46.28;19.73;;;;;;;;;;6245902;23;20008;-64
2022/12/05 05:22:49;;;;;;;42.20;19.90;;;;;;;;;;6245695;23;20008;-63
2022/12/05 05:25:15;;;;;;;41.85;19.25;;;;;;;;;;6245610;23;20011;-64
2022/12/05 05:27:41;;;;;;;42.95;19.08;;;;;;;;;;6245444;23;20057;-64
2022/12/05 05:30:08;;;;;;;44.03;20.92;;;;;;;;;;6245342;23;20007;-64
2022/12/05 05:32:34;;;;;;;45.65;21.60;;;;;;;;;;6245177;23;20011;-64
2022/12/05 05:35:00;;;;;;;49.47;20.20;;;;;;;;;;6245592;23;20389;-64
2022/12/05 05:37:26;;;;;;;50.22;21.52;;;;;;;;;;6245384;23;20008;-64
2022/12/05 05:39:52;;;;;;;50.88;21.02;;;;;;;;;;6244942;23;20000;-64
2022/12/05 05:42:18;;;;;;;45.13;20.90;;;;;;;;;;6244178;23;20004;-64
2022/12/05 05:44:44;;;;;;;53.72;20.70;;;;;;;;;;6243536;23;20400;-63
2022/12/05 05:47:10;;;;;;;47.22;22.77;;;;;;;;;;6244079;23;20008;-63
2022/12/05 05:49:36;;;;;;;48.70;21.17;;;;;;;;;;6244030;23;20350;-64
2022/12/05 05:52:03;;;;;;;51.13;21.83;;;;;;;;;;6243805;23;20031;-64
2022/12/05 05:54:29;;;;;;;45.28;20.23;;;;;;;;;;6244288;23;20054;-64
2022/12/05 05:56:55;;;;;;;46.28;21.65;;;;;;;;;;6243977;23;20008;-64
2022/12/05 05:59:21;;;;;;;47.25;20.48;;;;;;;;;;6242117;23;20381;-64
2022/12/05 06:01:47;;;;;;;47.22;20.80;;;;;;;;;;6243696;23;20004;-63
2022/12/05 06:04:13;;;;;;;45.47;19.73;;;;;;;;;;6244298;23;20446;-63
2022/12/05 06:06:40;;;;;;;49.97;20.83;;;;;;;;;;6243547;23;20008;-63
2022/12/05 06:09:07;;;;;;;51.80;22.50;;;;;;;;;;6244167;23;20011;-63
2022/12/05 06:11:33;;;;;;;59.08;22.15;;;;;;;;;;6243999;23;20323;-63
2022/12/05 06:14:02;;;;;;;49.50;21.95;;;;;;;;;;6243479;23;20020;-63
2022/12/05 06:16:29;;;;;;;49.30;22.08;;;;;;;;;;6243552;23;20011;-63
2022/12/05 06:18:56;;;;;;;50.65;20.27;;;;;;;;;;6244093;23;19996;-63
2022/12/05 06:21:22;;;;;;;53.53;21.75;;;;;;;;;;6243838;23;20035;-63
2022/12/05 06:23:48;;;;;;;48.47;22.08;;;;;;;;;;6243282;23;20011;-63
2022/12/05 06:26:17;;;;;;;52.78;21.67;;;;;;;;;;6243999;23;20011;-63
2022/12/05 06:28:44;;;;;;;48.40;20.85;;;;;;;;;;6243338;23;20084;-63
2022/12/05 06:31:11;;;;;;;55.58;24.33;;;;;;;;;;6244654;22;20004;-63
2022/12/05 06:33:38;;;;;;;56.90;25.63;;;;;;;;;;6244740;23;20000;-63
2022/12/05 06:36:08;;;;;;;51.35;22.77;;;;;;;;;;6244984;23;20078;-63
2022/12/05 06:38:34;;;;;;;50.13;21.75;;;;;;;;;;6244444;23;20087;-63
2022/12/05 06:41:03;;;;;;;54.67;21.58;;;;;;;;;;6244833;23;20003;-64
2022/12/05 06:43:30;;;;;;;47.92;21.40;;;;;;;;;;6244432;23;20008;-64
2022/12/05 06:45:56;;;;;;;58.88;23.85;;;;;;;;;;6243562;23;20012;-64
2022/12/05 06:48:22;;;;;;;53.83;23.40;;;;;;;;;;6244463;22;20012;-64
2022/12/05 06:50:50;;;;;;;53.35;21.85;;;;;;;;;;6244494;23;20008;-64
2022/12/05 06:53:16;;;;;;;48.58;22.55;;;;;;;;;;6244726;22;20366;-64
2022/12/05 06:55:42;;;;;;;50.58;28.33;;;;;;;;;;6244316;23;19997;-65
2022/12/05 06:58:08;;;;;;;51.03;21.05;;;;;;;;;;6244622;23;20005;-65
2022/12/05 07:03:19;;;;;;;50.47;21.73;;;;;;;;;;6243422;23;20371;-64
2022/12/05 07:05:45;;;;;;;50.40;21.90;;;;;;;;;;6243744;23;20008;-65
2022/12/05 07:08:11;;;;;;;50.00;21.40;;;;;;;;;;6244259;23;20012;-64
2022/12/05 07:10:37;;;;;;;47.78;21.95;;;;;;;;;;6244015;23;20007;-64
2022/12/05 07:13:03;;;;;;;50.80;22.23;;;;;;;;;;6244061;23;20083;-64
2022/12/05 07:15:29;;;;;;;48.63;21.10;;;;;;;;;;6244994;23;20000;-64
2022/12/05 07:17:55;;;;;;;46.63;22.85;;;;;;;;;;6244767;23;20069;-64
2022/12/05 07:20:21;;;;;;;46.58;22.23;;;;;;;;;;6245375;23;20011;-65
2022/12/05 07:22:47;;;;;;;51.95;23.02;;;;;;;;;;6245181;23;20008;-64
2022/12/05 07:25:13;;;;;;;45.03;20.13;;;;;;;;;;6244573;23;20004;-64
2022/12/05 07:27:40;;;;;;;48.28;22.10;;;;;;;;;;6245225;23;20393;-64
2022/12/05 07:30:06;;;;;;;45.60;22.10;;;;;;;;;;6245718;23;20008;-64
2022/12/05 07:32:33;;;;;;;53.88;25.02;;;;;;;;;;6244626;23;20051;-65
2022/12/05 07:34:59;;;;;;;49.33;22.23;;;;;;;;;;6244804;23;20381;-64
2022/12/05 07:37:25;;;;;;;47.78;20.52;;;;;;;;;;6245425;23;20095;-64
2022/12/05 07:39:52;;;;;;;46.63;22.75;;;;;;;;;;6244770;23;20075;-65
2022/12/05 07:42:18;;;;;;;49.75;21.55;;;;;;;;;;6242600;23;20039;-65
2022/12/05 07:44:44;;;;;;;49.55;22.10;;;;;;;;;;6243028;23;20008;-65
2022/12/05 07:47:10;;;;;;;47.78;21.95;;;;;;;;;;6241980;23;20008;-65
2022/12/05 07:49:36;;;;;;;58.25;25.00;;;;;;;;;;6242533;23;20015;-65
2022/12/05 07:52:02;;;;;;;48.75;22.77;;;;;;;;;;6243266;23;20424;-65
2022/12/05 07:54:28;;;;;;;55.78;24.10;;;;;;;;;;6242207;23;20005;-65
2022/12/05 07:56:55;;;;;;;48.55;22.83;;;;;;;;;;6242605;22;20004;-65
2022/12/05 07:59:21;;;;;;;51.10;23.10;;;;;;;;;;6242833;23;20311;-65
2022/12/05 08:01:47;;;;;;;52.05;23.80;;;;;;;;;;6243053;23;20004;-65
2022/12/05 08:04:13;;;;;;;57.13;25.58;;;;;;;;;;6242663;23;20536;-65
2022/12/05 08:06:39;;;;;;;53.05;23.30;;;;;;;;;;6242852;23;20146;-65
2022/12/05 08:09:05;;;;;;;51.75;23.52;;;;;;;;;;6243295;23;20004;-64
2022/12/05 08:11:35;;;;;;;48.95;23.55;;;;;;;;;;6243684;23;20012;-64
2022/12/05 08:14:03;;;;;;;48.72;21.40;;;;;;;;;;6242904;23;20012;-64
2022/12/05 08:16:30;;;;;;;53.25;23.45;;;;;;;;;;6244096;23;20000;-65
2022/12/05 08:18:58;;;;;;;53.75;24.40;;;;;;;;;;6243995;22;20038;-65
2022/12/05 08:21:24;;;;;;;53.22;22.85;;;;;;;;;;6242779;22;20008;-65
2022/12/05 08:23:50;;;;;;;50.97;23.33;;;;;;;;;;6242504;23;20000;-65
2022/12/05 08:26:23;;;;;;;57.10;23.02;;;;;;;;;;6243644;23;20643;-65
2022/12/05 08:29:12;;;;;;;50.55;22.77;;;;;;;;;;6243584;22;20054;-65
2022/12/05 08:31:40;;;;;;;48.50;23.27;;;;;;;;;;6228385;22;20079;-65
2022/12/05 08:34:06;;;;;;;65.60;30.13;;;;;;;;;;6242878;22;20019;-65
2022/12/05 08:36:32;;;;;;;64.90;28.27;;;;;;;;;;6243873;23;20004;-65
2022/12/05 08:38:59;;;;;;;66.75;29.88;;;;;;;;;;6242916;23;20450;-65
2022/12/05 08:41:28;;;;;;;60.17;26.55;;;;;;;;;;6244176;23;20007;-65
2022/12/05 08:43:59;;;;;;;57.53;23.75;;;;;;;;;;6243035;22;20000;-65
2022/12/05 08:46:25;;;;;;;56.40;24.90;;;;;;;;;;6243436;23;20342;-65
2022/12/05 08:48:51;;;;;;;56.45;24.30;;;;;;;;;;6243934;23;20398;-65
2022/12/05 08:51:17;;;;;;;53.50;24.80;;;;;;;;;;6243563;23;20019;-65
2022/12/05 08:53:43;;;;;;;56.40;25.23;;;;;;;;;;6243026;23;20000;-65
2022/12/05 08:56:10;;;;;;;60.08;24.95;;;;;;;;;;6243087;23;20005;-65
2022/12/05 08:58:36;;;;;;;54.80;23.40;;;;;;;;;;6243660;23;20063;-65
2022/12/05 09:01:06;;;;;;;58.25;24.88;;;;;;;;;;6243437;23;20004;-65
2022/12/05 09:03:32;;;;;;;61.45;26.35;;;;;;;;;;6243499;23;20012;-65
2022/12/05 09:06:07;;;;;;;56.75;24.05;;;;;;;;;;6243464;23;20011;-65
2022/12/05 09:08:33;;;;;;;58.65;23.08;;;;;;;;;;6242961;23;20517;-65
2022/12/05 09:10:59;;;;;;;55.63;24.63;;;;;;;;;;6243660;23;20435;-65
2022/12/05 09:13:26;;;;;;;101.97;38.95;;;;;;;;;;6242778;23;20012;-65
2022/12/05 09:15:52;;;;;;;111.00;43.28;;;;;;;;;;6243263;23;20000;-65
2022/12/05 09:18:18;;;;;;;100.28;37.50;;;;;;;;;;6243587;23;20050;-65
2022/12/05 09:20:44;;;;;;;65.93;29.27;;;;;;;;;;6243415;23;20008;-65
2022/12/05 09:23:10;;;;;;;52.88;24.08;;;;;;;;;;6242470;23;20008;-65
2022/12/05 09:25:36;;;;;;;96.03;37.13;;;;;;;;;;6243727;23;20312;-65
2022/12/05 09:28:02;;;;;;;133.52;49.50;;;;;;;;;;6244867;23;20004;-65
2022/12/05 09:30:28;;;;;;;140.75;49.95;;;;;;;;;;6244269;23;20001;-65
2022/12/05 09:32:54;;;;;;;99.75;40.03;;;;;;;;;;6245137;23;20058;-65
2022/12/05 09:35:20;;;;;;;59.85;24.05;;;;;;;;;;6245043;23;20000;-64
2022/12/05 09:37:47;;;;;;;60.58;26.08;;;;;;;;;;6244743;23;20015;-64
2022/12/05 09:40:17;;;;;;;62.20;24.70;;;;;;;;;;6244693;23;20031;-65
2022/12/05 09:42:55;;;;;;;57.83;23.45;;;;;;;;;;6245409;22;20019;-65
2022/12/05 09:45:21;;;;;;;54.58;21.50;;;;;;;;;;6244879;23;20011;-64
2022/12/05 09:47:51;;;;;;;53.13;23.33;;;;;;;;;;6245019;23;20004;-65
2022/12/05 09:50:21;;;;;;;63.70;24.20;;;;;;;;;;6244083;23;20018;-65
2022/12/05 09:52:50;;;;;;;64.57;29.85;;;;;;;;;;6244891;23;20008;-64
2022/12/05 09:55:18;;;;;;;94.47;38.78;;;;;;;;;;6244507;23;20015;-64
2022/12/05 09:57:56;;;;;;;73.55;30.13;;;;;;;;;;6244385;23;20000;-65
2022/12/05 10:00:22;;;;;;;63.72;29.20;;;;;;;;;;6244590;23;20091;-65
2022/12/05 10:03:02;;;;;;;76.20;31.10;;;;;;;;;;6244726;23;20011;-65
2022/12/05 10:05:40;;;;;;;53.28;23.33;;;;;;;;;;6244139;23;20031;-65
2022/12/05 10:08:14;;;;;;;51.45;22.52;;;;;;;;;;6245281;23;20016;-65
2022/12/05 10:10:47;;;;;;;71.93;29.13;;;;;;;;;;6244784;23;20035;-65
2022/12/05 10:13:22;;;;;;;72.93;31.77;;;;;;;;;;6244107;23;20019;-65
2022/12/05 10:15:51;;;;;;;47.22;21.88;;;;;;;;;;6244597;23;20000;-65
2022/12/05 10:18:37;;;;;;;52.70;22.10;;;;;;;;;;6244926;23;20000;-64
2022/12/05 10:21:09;;;;;;;46.17;21.52;;;;;;;;;;6244563;23;20450;-64
2022/12/05 10:23:39;;;;;;;52.00;21.60;;;;;;;;;;6244427;23;20062;-64
2022/12/05 10:26:07;;;;;;;49.85;20.98;;;;;;;;;;6244559;23;20051;-65
2022/12/05 10:28:46;;;;;;;48.20;21.80;;;;;;;;;;6244336;23;20083;-64
2022/12/05 10:31:13;;;;;;;74.68;31.67;;;;;;;;;;6244438;23;20427;-65
2022/12/05 10:33:43;;;;;;;54.25;24.58;;;;;;;;;;6244185;23;20000;-64
2022/12/05 10:36:10;;;;;;;49.75;22.38;;;;;;;;;;6242538;23;20514;-64
2022/12/05 10:38:36;;;;;;;59.58;25.73;;;;;;;;;;6244149;23;20028;-65
2022/12/05 10:41:07;;;;;;;51.63;21.73;;;;;;;;;;6244273;23;20035;-65
2022/12/05 10:43:34;;;;;;;57.63;25.45;;;;;;;;;;6243460;23;20038;-64
2022/12/05 10:46:01;;;;;;;58.65;26.00;;;;;;;;;;6244522;23;20011;-64
2022/12/05 10:48:30;;;;;;;72.35;27.95;;;;;;;;;;6243487;23;20015;-65
2022/12/05 10:50:58;;;;;;;52.50;24.33;;;;;;;;;;6244197;22;20008;-65
2022/12/05 10:53:34;;;;;;;59.10;24.98;;;;;;;;;;6243702;22;20160;-65
2022/12/05 10:56:00;;;;;;;46.83;20.48;;;;;;;;;;6244357;23;20004;-64
2022/12/05 10:58:27;;;;;;;54.03;24.42;;;;;;;;;;6244123;23;20078;-65
2022/12/05 11:00:55;;;;;;;53.78;21.70;;;;;;;;;;6243923;23;20018;-65
2022/12/05 11:03:40;;;;;;;71.63;28.83;;;;;;;;;;6243569;23;20008;-65
2022/12/05 11:06:30;;;;;;;46.75;21.55;;;;;;;;;;6244273;23;20035;-65
2022/12/05 11:08:57;;;;;;;61.35;25.77;;;;;;;;;;6229132;23;20016;-65
2022/12/05 11:11:27;;;;;;;64.68;28.60;;;;;;;;;;6244336;23;20035;-65
2022/12/05 11:13:53;;;;;;;47.00;22.13;;;;;;;;;;6242698;23;20019;-65
2022/12/05 11:16:23;;;;;;;63.40;27.17;;;;;;;;;;6244335;23;20008;-65
2022/12/05 11:18:50;;;;;;;50.03;23.42;;;;;;;;;;6243499;23;20342;-65
2022/12/05 11:21:18;;;;;;;54.03;24.80;;;;;;;;;;6243809;23;20004;-65
2022/12/05 11:23:44;;;;;;;47.25;20.00;;;;;;;;;;6243119;22;20008;-65
2022/12/05 11:26:19;;;;;;;51.17;19.67;;;;;;;;;;6244123;23;20430;-65
2022/12/05 11:28:45;;;;;;;44.15;20.23;;;;;;;;;;6244156;23;20019;-65
2022/12/05 11:31:11;;;;;;;44.17;20.08;;;;;;;;;;6243791;23;20000;-65
2022/12/05 11:33:37;;;;;;;41.42;19.27;;;;;;;;;;6242832;23;20079;-65
2022/12/05 11:36:21;;;;;;;34.25;18.00;;;;;;;;;;6243686;23;19996;-65
2022/12/05 11:38:47;;;;;;;31.27;13.90;;;;;;;;;;6243688;23;20066;-65
2022/12/05 11:41:33;;;;;;;27.98;14.27;;;;;;;;;;6243641;23;20011;-65
2022/12/05 11:44:11;;;;;;;31.40;14.30;;;;;;;;;;6243148;22;20015;-65
2022/12/05 11:46:41;;;;;;;30.33;14.07;;;;;;;;;;6243231;23;20019;-65
2022/12/05 11:49:26;;;;;;;31.05;14.38;;;;;;;;;;6243693;23;20442;-65
2022/12/05 11:52:04;;;;;;;27.25;13.60;;;;;;;;;;6241548;23;20080;-65
2022/12/05 11:54:40;;;;;;;27.17;13.20;;;;;;;;;;6243484;23;20020;-65
2022/12/05 11:57:08;;;;;;;24.25;11.88;;;;;;;;;;6243722;23;20011;-65
2022/12/05 12:00:01;;;;;;;22.38;11.27;;;;;;;;;;6243400;23;20001;-65
2022/12/05 12:02:47;;;;;;;20.83;11.45;;;;;;;;;;6243015;22;20008;-65
2022/12/05 12:05:20;;;;;;;20.83;10.68;;;;;;;;;;6243859;23;20032;-65
2022/12/05 12:07:54;;;;;;;19.40;9.88;;;;;;;;;;6243941;23;20036;-60
2022/12/05 12:10:24;;;;;;;21.83;10.63;;;;;;;;;;6243981;23;20043;-60
2022/12/05 12:12:56;;;;;;;20.58;10.82;;;;;;;;;;6242116;23;20018;-60
2022/12/05 12:15:25;;;;;;;16.85;9.18;;;;;;;;;;6243585;23;20004;-60
2022/12/05 12:18:01;;;;;;;20.73;9.73;;;;;;;;;;6243734;23;20000;-60
2022/12/05 12:20:37;;;;;;;20.42;10.25;;;;;;;;;;6244203;23;20011;-60
2022/12/05 12:23:09;;;;;;;15.95;8.85;;;;;;;;;;6243639;23;20008;-60
2022/12/05 12:25:35;;;;;;;20.55;9.57;;;;;;;;;;6244058;23;20086;-60
2022/12/05 12:28:21;;;;;;;19.30;9.40;;;;;;;;;;6243337;23;20007;-60
2022/12/05 12:30:57;;;;;;;19.98;9.02;;;;;;;;;;6243134;23;20031;-60
2022/12/05 12:33:23;;;;;;;16.75;8.52;;;;;;;;;;6243913;23;20415;-60
2022/12/05 12:35:51;;;;;;;20.90;8.68;;;;;;;;;;6243660;23;20441;-60
2022/12/05 12:38:36;;;;;;;20.02;9.60;;;;;;;;;;6243868;22;20000;-60
2022/12/05 12:41:02;;;;;;;21.70;9.52;;;;;;;;;;6243984;23;20008;-60
2022/12/05 12:43:31;;;;;;;23.38;11.55;;;;;;;;;;6243596;23;20038;-60
2022/12/05 12:46:00;;;;;;;22.63;9.48;;;;;;;;;;6243047;22;20367;-60
2022/12/05 12:48:35;;;;;;;15.57;8.02;;;;;;;;;;6241851;23;20019;-60
2022/12/05 12:51:02;;;;;;;20.90;9.20;;;;;;;;;;6243711;23;20008;-60
2022/12/05 12:53:46;;;;;;;17.55;7.97;;;;;;;;;;6243910;23;20032;-60
2022/12/05 12:56:22;;;;;;;17.38;8.10;;;;;;;;;;6244050;23;20598;-60
2022/12/05 12:58:48;;;;;;;16.80;8.88;;;;;;;;;;6243147;22;20007;-60
2022/12/05 13:01:14;;;;;;;20.77;8.95;;;;;;;;;;6244662;22;20008;-60
2022/12/05 13:03:43;;;;;;;18.58;9.25;;;;;;;;;;6245698;23;20438;-60
2022/12/05 13:06:09;;;;;;;21.58;9.50;;;;;;;;;;6245827;22;20000;-60
2022/12/05 13:08:40;;;;;;;23.00;9.85;;;;;;;;;;6245962;23;20004;-60
2022/12/05 13:11:11;;;;;;;19.83;9.75;;;;;;;;;;6245868;23;20012;-60
2022/12/05 13:13:44;;;;;;;18.52;9.43;;;;;;;;;;6244988;22;20066;-60
2022/12/05 13:16:12;;;;;;;19.50;8.93;;;;;;;;;;6245339;23;20000;-60
2022/12/05 13:18:38;;;;;;;17.75;8.23;;;;;;;;;;6245529;23;20376;-60
2022/12/05 13:21:08;;;;;;;20.63;9.77;;;;;;;;;;6245513;23;20008;-60
2022/12/05 13:23:40;;;;;;;20.30;8.93;;;;;;;;;;6245693;23;20008;-60
2022/12/05 13:26:11;;;;;;;24.88;10.20;;;;;;;;;;6245038;23;20016;-60
2022/12/05 13:28:57;;;;;;;22.17;9.55;;;;;;;;;;6245335;23;20004;-60
2022/12/05 13:31:37;;;;;;;23.35;10.57;;;;;;;;;;6244924;23;20008;-60
2022/12/05 13:34:03;;;;;;;22.00;9.77;;;;;;;;;;6243236;23;20082;-60
2022/12/05 13:42:20;;;;;;;23.65;10.43;;;;;;;;;;6245447;23;20004;-60
2022/12/05 13:44:55;;;;;;;31.77;12.75;;;;;;;;;;6244851;23;20061;-60
2022/12/05 13:47:30;;;;;;;38.60;13.63;;;;;;;;;;6245156;23;20304;-60
2022/12/05 13:50:08;;;;;;;21.02;9.32;;;;;;;;;;6244985;23;20016;-60
2022/12/05 13:53:12;;;;;;;19.35;8.68;;;;;;;;;;6245410;23;20040;-60
2022/12/05 13:55:53;;;;;;;17.55;8.65;;;;;;;;;;6123003;23;20427;-60
2022/12/05 13:58:19;;;;;;;13.05;7.90;;;;;;;;;;6122083;23;20049;-60
2022/12/05 14:00:45;;;;;;;16.02;8.25;;;;;;;;;;6122764;23;20010;-60
2022/12/05 14:03:23;;;;;;;15.48;8.05;;;;;;;;;;6122558;23;20104;-60
2022/12/05 14:05:51;;;;;;;19.50;9.63;;;;;;;;;;6122269;23;20106;-60
2022/12/05 14:08:40;;;;;;;17.33;8.02;;;;;;;;;;6121642;23;20021;-60
2022/12/05 14:11:08;;;;;;;16.40;7.75;;;;;;;;;;6110627;23;20101;-60
2022/12/05 14:13:41;;;;;;;16.25;8.10;;;;;;;;;;6120926;23;20032;-60
2022/12/05 14:16:07;;;;;;;;;;;;;;;;;;6121397;23;20010;-60
2022/12/05 14:18:47;;;;;;;19.20;9.57;;;;;;;;;;6122174;23;19912;-60
2022/12/05 14:21:31;;;;;;;15.23;7.88;;;;;;;;;;6120977;23;20018;-60
2022/12/05 14:24:06;;;;;;;13.95;7.75;;;;;;;;;;6121413;23;20018;-61
2022/12/05 14:26:40;;;;;;;15.35;7.93;;;;;;;;;;6191025;23;20378;-60
2022/12/05 14:29:25;;;;;;;16.83;7.00;;;;;;;;;;6243549;22;20008;-60
2022/12/05 14:32:23;;;;;;;14.05;8.88;;;;;;;;;;6243631;23;20011;-60
2022/12/05 14:34:58;;;;;;;19.63;8.10;;;;;;;;;;6121245;23;20053;-60
2022/12/05 14:37:41;;;;;;;14.98;8.35;;;;;;;;;;6121457;23;20014;-60
2022/12/05 14:40:26;;;;;;;13.82;8.27;;;;;;;;;;6121562;23;20017;-60
2022/12/05 14:43:04;;;;;;;17.27;9.07;;;;;;;;;;6121457;23;20029;-60
2022/12/05 14:45:38;;;;;;;15.80;8.18;;;;;;;;;;6120914;23;20014;-60